createdAt,value
2019-05-23T00:01:59.262Z,15.2
2019-05-23T00:04:31.651Z,20.0
2019-05-23T00:07:03.877Z,15.6
2019-05-23T00:09:36.262Z,15.4
2019-05-23T00:12:08.453Z,16.2
2019-05-23T00:14:40.872Z,17.5
2019-05-23T00:17:12.992Z,15.9
2019-05-23T00:19:45.519Z,16.2
2019-05-23T00:22:17.838Z,18.9
2019-05-23T00:24:50.217Z,15.1
2019-05-23T00:27:22.395Z,16.1
2019-05-23T00:29:54.235Z,18.7
2019-05-23T00:32:25.859Z,16.4
2019-05-23T00:34:57.733Z,16.6
2019-05-23T00:37:29.191Z,18.8
2019-05-23T00:40:01.268Z,22.3
2019-05-23T00:42:32.909Z,13.8
2019-05-23T00:45:04.610Z,21.4
2019-05-23T00:47:36.202Z,14.7
2019-05-23T00:50:07.939Z,18.3
2019-05-23T00:52:39.456Z,17.5
2019-05-23T00:55:11.296Z,18.5
2019-05-23T00:57:42.923Z,23.8
2019-05-23T01:00:14.540Z,26.0
2019-05-23T01:02:46.017Z,30.1
2019-05-23T01:05:17.717Z,34.9
2019-05-23T01:07:50.032Z,39.2
2019-05-23T01:10:21.758Z,43.8
2019-05-23T01:12:53.325Z,48.5
2019-05-23T01:15:25.161Z,41.1
2019-05-23T01:17:56.718Z,47.5
2019-05-23T01:20:28.763Z,44.4
2019-05-23T01:23:00.383Z,42.2
2019-05-23T01:25:32.445Z,48.1
2019-05-23T01:28:04.005Z,46.2
2019-05-23T01:31:25.817Z,46.8
2019-05-23T01:33:59.578Z,48.2
2019-05-23T01:36:33.614Z,49.0
2019-05-23T01:39:07.474Z,50.6
2019-05-23T01:41:41.489Z,50.5
2019-05-23T01:44:15.233Z,46.5
2019-05-23T01:46:49.064Z,49.5
2019-05-23T01:49:22.771Z,49.3
2019-05-23T01:51:56.532Z,43.2
2019-05-23T01:54:30.252Z,44.3
2019-05-23T01:57:04.097Z,44.4
2019-05-23T01:59:37.745Z,44.8
2019-05-23T02:02:11.688Z,45.2
2019-05-23T02:04:45.417Z,42.0
2019-05-23T02:07:19.304Z,46.8
2019-05-23T02:09:52.960Z,42.1
2019-05-23T02:12:27.307Z,38.4
2019-05-23T02:14:59.494Z,38.8
2019-05-23T02:17:31.895Z,28.1
2019-05-23T02:20:03.971Z,27.2
2019-05-23T02:22:36.383Z,31.1
2019-05-23T02:25:08.630Z,30.5
2019-05-23T02:27:40.972Z,28.1
2019-05-23T02:30:32.071Z,27.1
2019-05-23T02:32:54.220Z,24.9
2019-05-23T02:35:26.373Z,22.4
2019-05-23T02:37:58.804Z,23.3
2019-05-23T02:40:31.013Z,22.3
2019-05-23T02:43:03.490Z,22.7
2019-05-23T02:45:35.698Z,22.8
2019-05-23T02:48:08.229Z,21.6
2019-05-23T02:50:40.457Z,24.2
2019-05-23T02:53:13.059Z,22.2
2019-05-23T02:55:45.197Z,20.6
2019-05-23T02:58:17.850Z,19.0
2019-05-23T03:00:54.557Z,18.5
2019-05-23T03:03:28.014Z,21.3
2019-05-23T03:06:00.198Z,16.3
2019-05-23T03:08:32.540Z,17.5
2019-05-23T03:11:04.931Z,16.5
2019-05-23T03:13:37.635Z,18.6
2019-05-23T03:16:09.907Z,14.8
2019-05-23T03:18:42.164Z,13.7
2019-05-23T03:21:14.338Z,14.5
2019-05-23T03:23:46.680Z,12.6
2019-05-23T03:26:18.850Z,10.9
2019-05-23T03:28:51.586Z,11.9
2019-05-23T03:31:30.275Z,12.3
2019-05-23T03:34:07.137Z,12.7
2019-05-23T03:36:40.996Z,11.3
2019-05-23T03:39:15.109Z,11.7
2019-05-23T03:41:48.902Z,11.3
2019-05-23T03:44:23.158Z,10.4
2019-05-23T03:46:56.986Z,12.4
2019-05-23T03:49:30.929Z,11.5
2019-05-23T03:52:04.719Z,12.2
2019-05-23T03:54:38.670Z,12.0
2019-05-23T03:57:12.331Z,12.9
2019-05-23T03:59:46.644Z,12.8
2019-05-23T04:02:20.522Z,12.0
2019-05-23T04:04:54.379Z,12.0
2019-05-23T04:07:28.109Z,12.5
2019-05-23T04:10:02.071Z,13.3
2019-05-23T04:12:35.861Z,15.0
2019-05-23T04:15:10.362Z,14.2
2019-05-23T04:17:44.053Z,13.6
2019-05-23T04:20:17.831Z,14.5
2019-05-23T04:22:51.467Z,14.3
2019-05-23T04:25:25.431Z,14.5
2019-05-23T04:27:59.160Z,14.1
2019-05-23T04:30:33.122Z,14.7
2019-05-23T04:33:06.688Z,14.2
2019-05-23T04:35:40.590Z,15.7
2019-05-23T04:38:14.273Z,13.3
2019-05-23T04:40:48.377Z,13.2
2019-05-23T04:43:22.180Z,14.9
2019-05-23T04:45:56.514Z,13.7
2019-05-23T04:48:30.295Z,16.6
2019-05-23T04:51:04.259Z,18.4
2019-05-23T04:53:38.196Z,18.4
2019-05-23T04:56:11.931Z,19.1
2019-05-23T04:58:45.661Z,17.6
2019-05-23T05:01:19.626Z,15.2
2019-05-23T05:03:53.407Z,15.7
2019-05-23T05:06:27.233Z,25.5
2019-05-23T05:09:00.996Z,24.1
2019-05-23T05:11:34.710Z,23.7
2019-05-23T05:14:08.568Z,31.0
2019-05-23T05:16:42.430Z,32.5
2019-05-23T05:19:16.188Z,29.8
2019-05-23T05:21:50.250Z,30.1
2019-05-23T05:24:23.989Z,30.7
2019-05-23T05:26:58.089Z,31.0
2019-05-23T05:29:31.709Z,36.1
2019-05-23T05:31:25.355Z,42.1
2019-05-23T05:33:59.089Z,31.8
2019-05-23T05:36:32.974Z,33.8
2019-05-23T05:39:06.619Z,33.0
2019-05-23T05:41:40.446Z,28.8
2019-05-23T05:44:14.253Z,29.9
2019-05-23T05:46:47.967Z,26.4
2019-05-23T05:49:21.729Z,26.7
2019-05-23T05:51:55.364Z,22.5
2019-05-23T05:54:29.275Z,25.6
2019-05-23T05:57:03.100Z,23.1
2019-05-23T05:59:37.253Z,25.4
2019-05-23T06:02:10.923Z,27.4
2019-05-23T06:04:44.779Z,24.0
2019-05-23T06:07:18.864Z,28.9
2019-05-23T06:09:52.924Z,25.6
2019-05-23T06:12:26.862Z,23.8
2019-05-23T06:15:00.628Z,24.3
2019-05-23T06:17:34.433Z,22.8
2019-05-23T06:20:08.518Z,20.9
2019-05-23T06:22:42.245Z,24.7
2019-05-23T06:25:16.106Z,21.2
2019-05-23T06:27:49.880Z,23.4
2019-05-23T06:30:23.773Z,21.3
2019-05-23T06:32:57.503Z,21.0
2019-05-23T06:35:31.631Z,25.6
2019-05-23T06:38:03.803Z,26.5
2019-05-23T06:40:36.149Z,22.0
2019-05-23T06:43:08.407Z,22.3
2019-05-23T06:45:40.879Z,22.1
2019-05-23T06:48:13.027Z,23.4
2019-05-23T06:50:45.338Z,21.0
2019-05-23T06:53:17.483Z,22.1
2019-05-23T06:55:49.989Z,25.6
2019-05-23T06:58:23.015Z,23.7
2019-05-23T07:00:56.891Z,24.7
2019-05-23T07:03:41.060Z,25.7
2019-05-23T07:06:10.705Z,26.5
2019-05-23T07:08:43.084Z,29.1
2019-05-23T07:11:15.458Z,24.6
2019-05-23T07:13:47.657Z,22.9
2019-05-23T07:16:19.930Z,21.9
2019-05-23T07:18:52.239Z,24.6
2019-05-23T07:21:24.727Z,20.6
2019-05-23T07:23:57.048Z,22.0
2019-05-23T07:26:29.413Z,25.2
2019-05-23T07:29:01.762Z,21.0
2019-05-23T07:31:26.248Z,21.8
2019-05-23T07:34:01.504Z,20.6
2019-05-23T07:36:36.327Z,21.2
2019-05-23T07:39:11.576Z,18.9
2019-05-23T07:41:45.810Z,21.1
2019-05-23T07:44:19.707Z,20.5
2019-05-23T07:46:53.493Z,20.0
2019-05-23T07:49:27.430Z,23.4
2019-05-23T07:52:01.254Z,19.5
2019-05-23T07:54:35.323Z,20.7
2019-05-23T07:57:09.009Z,19.1
2019-05-23T07:59:42.872Z,21.2
2019-05-23T08:02:16.658Z,19.5
2019-05-23T08:04:50.636Z,20.1
2019-05-23T08:07:24.917Z,18.0
2019-05-23T08:09:57.395Z,15.6
2019-05-23T08:12:29.708Z,14.1
2019-05-23T08:15:02.386Z,13.9
2019-05-23T08:17:34.674Z,14.4
2019-05-23T08:20:07.048Z,15.6
2019-05-23T08:22:39.362Z,15.5
2019-05-23T08:25:12.043Z,15.0
2019-05-23T08:27:44.238Z,17.9
2019-05-23T08:30:16.710Z,16.4
2019-05-23T08:32:48.920Z,16.6
2019-05-23T08:35:21.619Z,16.7
2019-05-23T08:37:54.064Z,14.8
2019-05-23T08:40:26.394Z,14.2
2019-05-23T08:42:58.618Z,14.6
2019-05-23T08:45:30.945Z,19.3
2019-05-23T08:48:03.165Z,16.6
2019-05-23T08:50:35.476Z,15.4
2019-05-23T08:53:08.198Z,17.1
2019-05-23T08:55:40.435Z,15.3
2019-05-23T08:58:15.395Z,15.1
2019-05-23T09:00:47.919Z,14.0
2019-05-23T09:03:20.333Z,18.1
2019-05-23T09:05:53.111Z,14.7
2019-05-23T09:08:25.883Z,16.4
2019-05-23T09:10:58.583Z,13.8
2019-05-23T09:13:31.161Z,13.0
2019-05-23T09:16:03.682Z,11.9
2019-05-23T09:18:35.945Z,12.8
2019-05-23T09:21:08.608Z,11.0
2019-05-23T09:23:41.222Z,13.3
2019-05-23T09:26:13.663Z,10.2
2019-05-23T09:28:45.931Z,9.7
2019-05-23T09:31:25.631Z,10.8
2019-05-23T09:33:59.524Z,10.7
2019-05-23T09:36:33.471Z,12.7
2019-05-23T09:39:07.525Z,14.5
2019-05-23T09:41:41.522Z,13.1
2019-05-23T09:44:15.360Z,11.4
2019-05-23T09:46:49.340Z,12.1
2019-05-23T09:49:23.125Z,14.4
2019-05-23T09:52:00.907Z,16.3
2019-05-23T09:54:35.705Z,20.3
2019-05-23T09:57:09.687Z,22.1
2019-05-23T09:59:43.503Z,25.7
2019-05-23T10:02:17.518Z,25.9
2019-05-23T10:04:51.273Z,20.4
2019-05-23T10:07:25.258Z,19.7
2019-05-23T10:09:59.231Z,19.7
2019-05-23T10:12:33.279Z,19.4
2019-05-23T10:15:07.049Z,18.3
2019-05-23T10:17:40.986Z,20.7
2019-05-23T10:20:14.757Z,16.9
2019-05-23T10:22:48.577Z,15.1
2019-05-23T10:25:22.771Z,13.0
2019-05-23T10:27:56.936Z,14.8
2019-05-23T10:30:30.743Z,17.3
2019-05-23T10:33:11.359Z,15.3
2019-05-23T10:35:59.450Z,12.7
2019-05-23T10:38:29.781Z,13.7
2019-05-23T10:41:03.557Z,14.6
2019-05-23T10:43:37.897Z,13.9
2019-05-23T10:46:11.570Z,17.3
2019-05-23T10:48:45.595Z,16.2
2019-05-23T10:51:19.401Z,12.7
2019-05-23T10:53:53.280Z,10.9
2019-05-23T10:56:27.242Z,11.9
2019-05-23T10:59:01.052Z,9.8
2019-05-23T11:01:34.901Z,9.7
2019-05-23T11:04:08.875Z,10.5
2019-05-23T11:06:42.718Z,9.7
2019-05-23T11:09:16.526Z,12.4
2019-05-23T11:11:50.896Z,10.0
2019-05-23T11:14:24.831Z,10.7
2019-05-23T11:16:58.541Z,8.3
2019-05-23T11:19:32.395Z,11.6
2019-05-23T11:22:06.098Z,13.6
2019-05-23T11:24:39.943Z,13.0
2019-05-23T11:27:14.209Z,11.8
2019-05-23T11:29:48.284Z,14.0
2019-05-23T11:31:25.714Z,11.0
2019-05-23T11:33:59.402Z,13.7
2019-05-23T11:36:35.246Z,15.8
2019-05-23T11:39:16.052Z,13.6
2019-05-23T11:41:49.986Z,13.4
2019-05-23T11:44:23.843Z,13.5
2019-05-23T11:46:57.867Z,13.7
2019-05-23T11:49:31.566Z,15.2
2019-05-23T11:52:05.449Z,16.6
2019-05-23T11:54:39.864Z,17.6
2019-05-23T11:57:13.776Z,25.4
2019-05-23T11:59:47.485Z,21.5
2019-05-23T12:02:21.544Z,24.4
2019-05-23T12:04:55.450Z,24.9
2019-05-23T12:07:29.532Z,20.9
2019-05-23T12:10:03.385Z,23.6
2019-05-23T12:12:37.128Z,22.8
2019-05-23T12:15:10.959Z,21.6
2019-05-23T12:17:44.822Z,23.0
2019-05-23T12:20:18.522Z,22.6
2019-05-23T12:22:52.411Z,24.3
2019-05-23T12:25:24.966Z,23.7
2019-05-23T12:27:57.436Z,25.3
2019-05-23T12:30:30.207Z,24.6
2019-05-23T12:33:02.487Z,23.3
2019-05-23T12:35:34.835Z,22.2
2019-05-23T12:38:07.199Z,25.0
2019-05-23T12:40:39.364Z,25.1
2019-05-23T12:43:11.748Z,22.1
2019-05-23T12:45:44.628Z,21.2
2019-05-23T12:48:16.947Z,23.0
2019-05-23T12:50:53.696Z,22.0
2019-05-23T12:53:26.578Z,19.7
2019-05-23T12:55:58.872Z,21.0
2019-05-23T12:58:34.561Z,18.7
2019-05-23T13:01:07.306Z,19.5
2019-05-23T13:03:39.626Z,18.7
2019-05-23T13:06:11.998Z,20.4
2019-05-23T13:08:44.395Z,19.4
2019-05-23T13:11:18.624Z,17.6
2019-05-23T13:13:51.196Z,18.6
2019-05-23T13:16:23.885Z,19.1
2019-05-23T13:18:56.321Z,21.0
2019-05-23T13:21:28.691Z,19.6
2019-05-23T13:24:01.070Z,16.1
2019-05-23T13:26:33.353Z,19.2
2019-05-23T13:29:05.819Z,15.4
2019-05-23T13:31:25.687Z,17.1
2019-05-23T13:33:59.487Z,17.1
2019-05-23T13:36:33.300Z,16.4
2019-05-23T13:39:07.214Z,17.0
2019-05-23T13:41:40.979Z,17.0
2019-05-23T13:44:31.649Z,13.7
2019-05-23T13:46:57.339Z,16.4
2019-05-23T13:49:31.152Z,15.2
2019-05-23T13:52:05.255Z,13.0
2019-05-23T13:54:39.065Z,12.7
2019-05-23T13:57:13.068Z,11.0
2019-05-23T13:59:46.812Z,12.7
2019-05-23T14:02:21.378Z,14.9
2019-05-23T14:04:55.279Z,11.5
2019-05-23T14:07:29.129Z,10.0
2019-05-23T14:10:02.853Z,13.0
2019-05-23T14:12:36.848Z,10.5
2019-05-23T14:15:10.609Z,8.9
2019-05-23T14:17:44.822Z,9.1
2019-05-23T14:20:18.607Z,12.1
2019-05-23T14:22:52.508Z,12.0
2019-05-23T14:25:26.386Z,10.1
2019-05-23T14:28:00.408Z,9.9
2019-05-23T14:30:34.347Z,12.8
2019-05-23T14:33:08.818Z,8.0
2019-05-23T14:35:42.643Z,12.3
2019-05-23T14:38:29.477Z,10.8
2019-05-23T14:40:58.923Z,9.2
2019-05-23T14:43:33.120Z,11.5
2019-05-23T14:46:07.222Z,10.1
2019-05-23T14:48:41.077Z,9.3
2019-05-23T14:51:14.873Z,8.8
2019-05-23T14:53:48.948Z,6.8
2019-05-23T14:56:22.785Z,8.6
2019-05-23T14:58:56.824Z,5.7
2019-05-23T15:01:30.602Z,6.2
2019-05-23T15:04:05.036Z,8.7
2019-05-23T15:06:38.848Z,4.9
2019-05-23T15:09:13.090Z,5.2
2019-05-23T15:11:45.345Z,4.0
2019-05-23T15:14:17.688Z,5.1
2019-05-23T15:16:49.801Z,6.1
2019-05-23T15:19:39.043Z,5.9
2019-05-23T15:22:02.986Z,5.3
2019-05-23T15:24:35.298Z,5.1
2019-05-23T15:27:07.639Z,5.9
2019-05-23T15:29:39.886Z,5.7
2019-05-23T15:31:25.605Z,6.9
2019-05-23T15:33:59.362Z,6.7
2019-05-23T15:36:33.297Z,7.7
2019-05-23T15:39:09.805Z,6.6
2019-05-23T15:41:44.698Z,6.9
2019-05-23T15:44:26.431Z,6.7
2019-05-23T15:47:01.154Z,6.1
2019-05-23T15:49:34.971Z,5.9
2019-05-23T15:52:08.807Z,5.5
2019-05-23T15:54:42.578Z,5.4
2019-05-23T15:57:16.375Z,5.2
2019-05-23T15:59:50.191Z,8.9
2019-05-23T16:02:24.258Z,7.2
2019-05-23T16:04:58.072Z,10.9
2019-05-23T16:07:32.036Z,7.7
2019-05-23T16:10:05.813Z,8.7
2019-05-23T16:12:39.582Z,8.1
2019-05-23T16:15:13.580Z,6.7
2019-05-23T16:17:47.484Z,8.0
2019-05-23T16:20:21.330Z,7.5
2019-05-23T16:22:55.475Z,7.4
2019-05-23T16:25:29.257Z,7.7
2019-05-23T16:28:03.365Z,7.0
2019-05-23T16:30:37.323Z,7.0
2019-05-23T16:33:11.275Z,6.6
2019-05-23T16:35:44.984Z,7.4
2019-05-23T16:38:19.374Z,6.1
2019-05-23T16:40:53.090Z,7.6
2019-05-23T16:43:27.105Z,6.6
2019-05-23T16:46:00.899Z,7.0
2019-05-23T16:48:34.934Z,7.1
2019-05-23T16:51:08.735Z,7.8
2019-05-23T16:53:43.087Z,8.7
2019-05-23T16:56:17.427Z,6.7
2019-05-23T16:58:51.758Z,13.6
2019-05-23T17:01:24.836Z,8.7
2019-05-23T17:03:57.702Z,9.9
2019-05-23T17:06:30.298Z,7.9
2019-05-23T17:09:03.118Z,8.0
2019-05-23T17:11:35.308Z,10.1
2019-05-23T17:14:07.812Z,9.1
2019-05-23T17:16:40.367Z,10.7
2019-05-23T17:19:12.812Z,8.8
2019-05-23T17:21:45.363Z,9.5
2019-05-23T17:24:17.897Z,9.4
2019-05-23T17:26:50.083Z,9.1
2019-05-23T17:29:21.970Z,8.2
2019-05-23T17:31:25.985Z,10.1
2019-05-23T17:33:59.924Z,10.3
2019-05-23T17:36:33.841Z,12.9
2019-05-23T17:39:07.779Z,11.6
2019-05-23T17:41:41.480Z,11.9
2019-05-23T17:44:15.386Z,12.7
2019-05-23T17:46:49.214Z,11.9
2019-05-23T17:49:22.900Z,11.4
2019-05-23T17:51:56.904Z,12.9
2019-05-23T17:54:30.984Z,13.0
2019-05-23T17:57:04.972Z,12.7
2019-05-23T17:59:38.656Z,12.4
2019-05-23T18:02:12.650Z,12.5
2019-05-23T18:04:46.630Z,12.1
2019-05-23T18:07:20.683Z,12.0
2019-05-23T18:09:54.547Z,14.3
2019-05-23T18:12:28.777Z,12.8
2019-05-23T18:15:00.870Z,10.9
2019-05-23T18:17:33.381Z,13.0
2019-05-23T18:20:05.580Z,11.4
2019-05-23T18:22:37.874Z,11.6
2019-05-23T18:25:10.195Z,10.6
2019-05-23T18:27:42.973Z,13.1
2019-05-23T18:30:15.210Z,9.5
2019-05-23T18:32:47.610Z,14.4
2019-05-23T18:35:20.896Z,10.4
2019-05-23T18:37:53.063Z,10.6
2019-05-23T18:40:24.887Z,10.3
2019-05-23T18:42:56.761Z,11.4
2019-05-23T18:45:28.315Z,10.6
2019-05-23T18:48:00.188Z,12.0
2019-05-23T18:50:31.756Z,11.4
2019-05-23T18:53:03.415Z,19.6
2019-05-23T18:55:35.024Z,10.6
2019-05-23T18:58:06.872Z,15.5
2019-05-23T19:00:38.379Z,13.2
2019-05-23T19:03:10.386Z,11.6
2019-05-23T19:05:42.224Z,12.0
2019-05-23T19:08:14.044Z,12.2
2019-05-23T19:10:45.727Z,13.2
2019-05-23T19:13:18.460Z,10.3
2019-05-23T19:15:50.042Z,10.5
2019-05-23T19:18:21.697Z,11.9
2019-05-23T19:20:54.699Z,10.0
2019-05-23T19:23:26.995Z,12.0
2019-05-23T19:25:58.581Z,10.9
2019-05-23T19:28:30.837Z,13.1
2019-05-23T19:31:25.237Z,13.0
2019-05-23T19:33:59.165Z,13.2
2019-05-23T19:36:33.037Z,15.0
2019-05-23T19:39:06.971Z,14.9
2019-05-23T19:41:40.666Z,15.4
2019-05-23T19:44:14.979Z,13.0
2019-05-23T19:46:48.736Z,14.1
2019-05-23T19:49:22.552Z,14.9
2019-05-23T19:51:59.123Z,13.5
2019-05-23T19:54:31.540Z,13.0
2019-05-23T19:57:03.724Z,11.9
2019-05-23T19:59:36.180Z,13.2
2019-05-23T20:02:08.338Z,13.0
2019-05-23T20:04:40.785Z,14.1
2019-05-23T20:07:15.289Z,14.3
2019-05-23T20:09:47.950Z,12.6
2019-05-23T20:12:20.232Z,12.4
2019-05-23T20:14:52.475Z,13.9
2019-05-23T20:17:24.637Z,12.4
2019-05-23T20:19:57.342Z,13.7
2019-05-23T20:22:29.569Z,13.2
2019-05-23T20:25:02.212Z,11.7
2019-05-23T20:27:34.590Z,13.3
2019-05-23T20:30:09.690Z,16.5
2019-05-23T20:32:41.929Z,13.7
2019-05-23T20:35:14.486Z,13.5
2019-05-23T20:37:46.968Z,13.2
2019-05-23T20:40:19.783Z,13.8
2019-05-23T20:42:52.511Z,14.2
2019-05-23T20:45:25.403Z,13.5
2019-05-23T20:47:57.592Z,16.5
2019-05-23T20:50:29.866Z,13.2
2019-05-23T20:53:02.189Z,14.6
2019-05-23T20:55:34.637Z,17.2
2019-05-23T20:58:07.242Z,12.8
2019-05-23T21:00:39.734Z,14.3
2019-05-23T21:03:11.920Z,14.0
2019-05-23T21:05:44.355Z,12.6
2019-05-23T21:08:17.448Z,14.3
2019-05-23T21:10:54.426Z,12.5
2019-05-23T21:13:29.195Z,16.4
2019-05-23T21:16:02.957Z,13.3
2019-05-23T21:18:36.801Z,13.6
2019-05-23T21:21:11.080Z,14.0
2019-05-23T21:23:43.315Z,15.0
2019-05-23T21:26:15.710Z,17.2
2019-05-23T21:28:49.209Z,19.3
2019-05-23T21:31:26.386Z,20.4
2019-05-23T21:34:00.089Z,17.9
2019-05-23T21:36:33.969Z,21.8
2019-05-23T21:39:07.693Z,20.4
2019-05-23T21:41:41.522Z,24.2
2019-05-23T21:44:15.369Z,25.1
2019-05-23T21:46:49.215Z,21.0
2019-05-23T21:49:22.876Z,22.2
2019-05-23T21:51:56.833Z,18.5
2019-05-23T21:54:30.450Z,17.1
2019-05-23T21:57:04.485Z,20.7
2019-05-23T21:59:38.514Z,20.9
2019-05-23T22:02:13.063Z,20.5
2019-05-23T22:04:47.527Z,15.3
2019-05-23T22:07:21.446Z,17.5
2019-05-23T22:09:55.300Z,18.7
2019-05-23T22:12:31.764Z,20.9
2019-05-23T22:15:05.521Z,19.0
2019-05-23T22:17:39.656Z,21.3
2019-05-23T22:20:13.480Z,21.7
2019-05-23T22:22:49.859Z,19.5
2019-05-23T22:25:23.627Z,18.3
2019-05-23T22:27:57.491Z,16.6
2019-05-23T22:30:31.327Z,18.8
2019-05-23T22:33:05.117Z,19.7
2019-05-23T22:35:38.788Z,18.1
2019-05-23T22:38:12.769Z,19.2
2019-05-23T22:40:46.371Z,18.8
2019-05-23T22:43:21.251Z,15.1
2019-05-23T22:45:55.180Z,18.0
2019-05-23T22:48:29.123Z,14.6
2019-05-23T22:51:02.857Z,18.5
2019-05-23T22:53:36.806Z,19.1
2019-05-23T22:56:10.465Z,15.6
2019-05-23T22:58:44.166Z,17.2
2019-05-23T23:01:17.880Z,17.9
2019-05-23T23:03:54.654Z,17.6
2019-05-23T23:06:28.359Z,18.5
2019-05-23T23:09:02.353Z,16.4
2019-05-23T23:11:36.009Z,18.9
2019-05-23T23:14:09.965Z,18.3
2019-05-23T23:16:43.661Z,18.6
2019-05-23T23:19:17.928Z,21.4
2019-05-23T23:21:50.255Z,18.1
2019-05-23T23:24:22.708Z,17.4
2019-05-23T23:26:54.938Z,19.4
2019-05-23T23:29:27.325Z,21.8
2019-05-23T23:31:26.119Z,19.6
2019-05-23T23:33:59.909Z,18.2
2019-05-23T23:36:33.694Z,17.4
2019-05-23T23:39:07.372Z,19.7
2019-05-23T23:41:41.062Z,16.1
2019-05-23T23:44:14.768Z,18.0
2019-05-23T23:46:48.500Z,18.3
2019-05-23T23:49:22.156Z,19.8
2019-05-23T23:51:56.027Z,16.2
2019-05-23T23:54:29.738Z,18.8
2019-05-23T23:57:03.730Z,16.6
2019-05-23T23:59:37.565Z,16.4
